Time;durP1;ratioP1;P1;durP2;ratioP2;P2;SDS_P1;SDS_P2;PMS_P1;PMS_P2;Temp;Humidity;BMP_temperature;BMP_pressure;BME280_temperature;BME280_humidity;BME280_pressure;Samples;Min_cycle;Max_cycle;Signal;HPM_P1;HPM_P2
2023/12/12 00:01:53;;;;;;;9.45;3.65;;;8.90;99.90;;;;;;5021248;28;20466;-75
2023/12/12 00:04:19;;;;;;;9.82;3.40;;;8.90;99.90;;;;;;5021760;28;20429;-75
2023/12/12 00:06:47;;;;;;;8.38;3.60;;;8.90;99.90;;;;;;5022281;28;20415;-76
2023/12/12 00:09:14;;;;;;;7.75;3.30;;;8.90;99.90;;;;;;5014969;28;20416;-75
2023/12/12 00:11:41;;;;;;;7.72;3.20;;;8.90;99.90;;;;;;5021396;28;20442;-76
2023/12/12 00:14:07;;;;;;;9.18;3.40;;;8.80;99.90;;;;;;5021346;28;20435;-76
2023/12/12 00:16:34;;;;;;;9.27;3.50;;;8.80;99.90;;;;;;5018493;28;20409;-75
2023/12/12 00:19:02;;;;;;;9.82;3.08;;;8.80;99.90;;;;;;5016493;28;20433;-75
2023/12/12 00:21:29;;;;;;;10.50;3.47;;;8.80;99.90;;;;;;5027599;28;20913;-76
2023/12/12 00:23:57;;;;;;;11.98;3.72;;;8.80;99.90;;;;;;5019976;28;20422;-75
2023/12/12 00:26:24;;;;;;;9.43;3.70;;;8.80;99.90;;;;;;5039044;22;20507;-74
2023/12/12 00:28:51;;;;;;;10.20;2.85;;;8.80;99.90;;;;;;5042719;28;20425;-74
2023/12/12 00:31:17;;;;;;;8.60;3.38;;;8.80;99.90;;;;;;5048904;28;20409;-74
2023/12/12 00:33:44;;;;;;;9.25;3.40;;;8.80;99.90;;;;;;5046860;28;20885;-74
2023/12/12 00:36:11;;;;;;;9.73;3.22;;;8.80;99.90;;;;;;5045541;28;20425;-74
2023/12/12 00:38:38;;;;;;;10.32;3.03;;;8.80;99.90;;;;;;5043687;28;20931;-75
2023/12/12 00:41:07;;;;;;;9.18;3.20;;;8.80;99.90;;;;;;5040296;28;20465;-76
2023/12/12 00:43:33;;;;;;;6.50;2.65;;;8.80;99.90;;;;;;5045557;28;20926;-74
2023/12/12 00:46:01;;;;;;;10.00;3.00;;;8.80;99.90;;;;;;5046499;28;20445;-73
2023/12/12 00:48:27;;;;;;;14.13;3.92;;;8.80;99.90;;;;;;5043869;28;20417;-74
2023/12/12 00:50:55;;;;;;;10.52;3.20;;;8.80;99.90;;;;;;5044612;28;20417;-75
2023/12/12 00:53:21;;;;;;;9.30;2.60;;;8.80;99.90;;;;;;5044957;28;20849;-74
2023/12/12 00:55:48;;;;;;;9.40;3.20;;;8.70;99.90;;;;;;5037294;28;20439;-75
2023/12/12 00:58:16;;;;;;;6.65;2.70;;;8.80;99.90;;;;;;5041701;28;20418;-74
2023/12/12 01:00:43;;;;;;;13.45;3.33;;;8.70;99.90;;;;;;5046614;28;20424;-75
2023/12/12 01:03:10;;;;;;;10.20;3.25;;;8.70;99.90;;;;;;5046586;28;20409;-74
2023/12/12 01:05:37;;;;;;;9.25;3.80;;;8.70;99.90;;;;;;5046635;28;20555;-74
2023/12/12 01:08:04;;;;;;;9.15;3.20;;;8.70;99.90;;;;;;5045022;28;20413;-74
2023/12/12 01:10:30;;;;;;;10.02;3.47;;;8.70;99.90;;;;;;5046028;28;20418;-74
2023/12/12 01:12:57;;;;;;;9.55;2.80;;;8.80;99.90;;;;;;5045127;28;20416;-76
2023/12/12 01:15:25;;;;;;;9.45;3.17;;;8.80;99.90;;;;;;5043864;28;20436;-76
2023/12/12 01:17:52;;;;;;;10.50;3.10;;;8.80;99.90;;;;;;5044783;28;20420;-74
2023/12/12 01:20:19;;;;;;;10.27;3.00;;;8.80;99.90;;;;;;5045032;28;20466;-73
2023/12/12 01:22:46;;;;;;;8.02;2.97;;;8.80;99.90;;;;;;5043215;28;20429;-74
2023/12/12 01:25:12;;;;;;;10.35;3.65;;;8.70;99.90;;;;;;5040151;28;20421;-74
2023/12/12 01:27:39;;;;;;;8.35;3.03;;;8.70;99.90;;;;;;5044753;28;20868;-74
2023/12/12 01:30:07;;;;;;;13.25;3.10;;;8.70;99.90;;;;;;5044370;28;20418;-74
2023/12/12 01:32:35;;;;;;;7.90;3.17;;;8.70;99.90;;;;;;5044088;28;20741;-74
2023/12/12 01:35:02;;;;;;;9.90;2.97;;;8.60;99.90;;;;;;5044598;28;20440;-74
2023/12/12 01:37:28;;;;;;;9.25;3.40;;;8.60;99.90;;;;;;5042195;28;20437;-74
2023/12/12 01:39:55;;;;;;;8.63;3.25;;;8.60;99.90;;;;;;5043204;28;20440;-74
2023/12/12 01:42:22;;;;;;;10.32;3.30;;;8.60;99.90;;;;;;5042729;28;20414;-74
2023/12/12 01:44:49;;;;;;;9.60;3.50;;;8.60;99.90;;;;;;5045025;28;20405;-74
2023/12/12 01:47:16;;;;;;;7.57;3.40;;;8.60;99.90;;;;;;5044508;28;20520;-74
2023/12/12 01:49:45;;;;;;;7.45;2.80;;;8.60;99.90;;;;;;5043702;28;20629;-74
2023/12/12 01:52:13;;;;;;;9.95;2.70;;;8.70;99.90;;;;;;5040325;28;20445;-74
2023/12/12 01:54:46;;;;;;;10.68;3.08;;;8.70;99.90;;;;;;5043998;28;20433;-74
2023/12/12 01:57:14;;;;;;;9.25;3.72;;;8.70;99.90;;;;;;5043059;28;20428;-73
2023/12/12 01:59:41;;;;;;;11.38;3.20;;;8.70;99.90;;;;;;5044037;28;21964;-74
2023/12/12 02:02:10;;;;;;;11.15;3.00;;;8.70;99.90;;;;;;5044205;28;20417;-74
2023/12/12 02:04:37;;;;;;;10.70;3.40;;;8.80;99.90;;;;;;5045566;28;20521;-74
2023/12/12 02:07:06;;;;;;;10.32;3.10;;;8.80;99.90;;;;;;5042755;28;20448;-74
2023/12/12 02:09:32;;;;;;;9.88;3.42;;;8.80;99.90;;;;;;5043443;28;20448;-74
2023/12/12 02:12:00;;;;;;;9.53;3.00;;;8.80;99.90;;;;;;5044777;28;20413;-74
2023/12/12 02:14:27;;;;;;;11.32;3.30;;;8.90;99.90;;;;;;5043467;28;20845;-74
2023/12/12 02:16:54;;;;;;;9.23;3.10;;;8.90;99.90;;;;;;5042786;28;20505;-73
2023/12/12 02:19:21;;;;;;;10.50;3.30;;;8.90;99.90;;;;;;5048006;28;20420;-74
2023/12/12 02:21:49;;;;;;;11.10;3.35;;;8.90;99.90;;;;;;5051041;28;20446;-73
2023/12/12 02:24:15;;;;;;;9.80;3.47;;;8.90;99.90;;;;;;5059365;28;20414;-73
2023/12/12 02:26:42;;;;;;;9.35;3.70;;;8.90;99.90;;;;;;5055954;28;20421;-75
2023/12/12 02:29:09;;;;;;;10.93;2.90;;;8.90;99.90;;;;;;5050907;28;20876;-75
2023/12/12 02:31:36;;;;;;;11.68;3.47;;;8.90;99.90;;;;;;5043304;28;20429;-73
2023/12/12 02:34:03;;;;;;;11.27;3.20;;;8.80;99.90;;;;;;5042965;28;20489;-73
2023/12/12 02:36:30;;;;;;;8.65;2.88;;;8.80;99.90;;;;;;5036440;28;20427;-74
2023/12/12 02:38:58;;;;;;;10.50;3.30;;;8.80;99.90;;;;;;5043470;28;20425;-74
2023/12/12 02:41:24;;;;;;;11.10;3.50;;;8.70;99.90;;;;;;5042414;28;20429;-73
2023/12/12 02:43:51;;;;;;;13.55;3.88;;;8.80;99.90;;;;;;5045513;28;20573;-74
2023/12/12 02:46:18;;;;;;;7.85;3.67;;;8.70;99.90;;;;;;5042441;28;20844;-73
2023/12/12 02:48:44;;;;;;;11.10;3.30;;;8.70;99.90;;;;;;5043414;28;20412;-74
2023/12/12 02:51:11;;;;;;;12.68;3.70;;;8.70;99.90;;;;;;5041334;28;20868;-73
2023/12/12 02:53:38;;;;;;;13.30;3.95;;;8.70;99.90;;;;;;5042182;28;20424;-73
2023/12/12 02:56:06;;;;;;;10.10;3.00;;;8.70;99.90;;;;;;5043823;28;20421;-73
2023/12/12 02:58:33;;;;;;;8.65;3.30;;;8.60;99.90;;;;;;5042797;28;20413;-73
2023/12/12 03:01:00;;;;;;;12.05;3.97;;;8.60;99.90;;;;;;5043648;28;20420;-73
2023/12/12 03:03:27;;;;;;;13.77;3.50;;;8.60;99.90;;;;;;5043205;28;20805;-76
2023/12/12 03:05:53;;;;;;;11.80;3.60;;;8.60;99.90;;;;;;5037641;28;20520;-75
2023/12/12 03:08:20;;;;;;;12.33;3.70;;;8.50;99.90;;;;;;5040909;28;20849;-73
2023/12/12 03:10:48;;;;;;;10.25;4.10;;;8.50;99.90;;;;;;5046207;28;20418;-73
2023/12/12 03:13:16;;;;;;;8.57;2.87;;;8.40;99.90;;;;;;5048100;28;20417;-73
2023/12/12 03:15:43;;;;;;;6.97;2.90;;;8.50;99.90;;;;;;5048271;28;20951;-73
2023/12/12 03:18:09;;;;;;;9.85;2.80;;;8.50;99.90;;;;;;5047491;28;20894;-76
2023/12/12 03:20:36;;;;;;;9.05;3.00;;;8.40;99.90;;;;;;5045139;28;20524;-75
2023/12/12 03:23:03;;;;;;;10.65;3.00;;;8.50;99.90;;;;;;5046521;28;20737;-73
2023/12/12 03:25:29;;;;;;;8.98;3.17;;;8.40;99.90;;;;;;5045599;28;20455;-73
2023/12/12 03:27:56;;;;;;;9.63;2.70;;;8.40;99.90;;;;;;5045734;28;20436;-73
2023/12/12 03:30:23;;;;;;;9.65;3.30;;;8.40;99.90;;;;;;5046029;28;20488;-74
2023/12/12 03:32:50;;;;;;;7.55;3.00;;;8.40;99.90;;;;;;5039157;28;20428;-73
2023/12/12 03:35:17;;;;;;;7.95;3.10;;;8.40;99.90;;;;;;5044430;28;20437;-73
2023/12/12 03:37:44;;;;;;;7.60;2.78;;;8.30;99.90;;;;;;5045391;28;20529;-74
2023/12/12 03:40:12;;;;;;;7.82;2.90;;;8.30;99.90;;;;;;5046063;28;20432;-74
2023/12/12 03:42:38;;;;;;;7.07;3.00;;;8.30;99.90;;;;;;5044623;28;20513;-73
2023/12/12 03:45:07;;;;;;;8.38;3.17;;;8.30;99.90;;;;;;5045862;28;20528;-74
2023/12/12 03:47:35;;;;;;;6.40;2.40;;;8.30;99.90;;;;;;5045666;28;20494;-73
2023/12/12 03:50:02;;;;;;;7.78;2.70;;;8.30;99.90;;;;;;5045649;28;20433;-74
2023/12/12 03:52:29;;;;;;;7.97;2.70;;;8.30;99.90;;;;;;5046087;28;20421;-73
2023/12/12 03:54:55;;;;;;;8.57;2.70;;;8.30;99.90;;;;;;5045986;28;20413;-75
2023/12/12 03:57:22;;;;;;;13.02;3.30;;;8.30;99.90;;;;;;5046320;28;20520;-74
2023/12/12 03:59:49;;;;;;;10.40;2.50;;;8.30;99.90;;;;;;5047238;28;20410;-74
2023/12/12 04:02:15;;;;;;;8.68;2.22;;;8.30;99.90;;;;;;5046227;28;20437;-73
2023/12/12 04:04:43;;;;;;;7.43;2.92;;;8.30;99.90;;;;;;5042272;28;20446;-74
2023/12/12 04:07:10;;;;;;;8.88;2.70;;;8.30;99.90;;;;;;5045537;28;20900;-74
2023/12/12 04:09:37;;;;;;;7.80;2.90;;;8.30;99.90;;;;;;5045346;28;20409;-74
2023/12/12 04:12:04;;;;;;;7.43;2.72;;;8.30;99.90;;;;;;5044718;28;20409;-74
2023/12/12 04:14:31;;;;;;;9.00;2.65;;;8.30;99.90;;;;;;5044762;28;20417;-73
2023/12/12 04:16:57;;;;;;;11.57;2.97;;;8.30;99.90;;;;;;5044079;28;20434;-74
2023/12/12 04:19:24;;;;;;;8.82;2.90;;;8.20;99.90;;;;;;5042815;28;20437;-73
2023/12/12 04:21:52;;;;;;;8.73;2.83;;;8.20;99.90;;;;;;5046627;28;20417;-73
2023/12/12 04:24:19;;;;;;;10.00;3.00;;;8.20;99.90;;;;;;5045667;28;20422;-73
2023/12/12 04:26:46;;;;;;;9.38;3.00;;;8.10;99.90;;;;;;5045819;28;20409;-74
2023/12/12 04:29:13;;;;;;;9.63;2.90;;;8.20;99.90;;;;;;5045464;28;20420;-74
2023/12/12 04:31:39;;;;;;;9.25;2.88;;;8.20;99.90;;;;;;5046202;28;20405;-74
2023/12/12 04:34:06;;;;;;;10.27;2.90;;;8.10;99.90;;;;;;5043992;28;20782;-74
2023/12/12 04:36:33;;;;;;;8.85;2.78;;;8.20;99.90;;;;;;5045090;28;20437;-74
2023/12/12 04:39:01;;;;;;;7.65;3.10;;;8.20;99.90;;;;;;5045611;28;20490;-74
2023/12/12 04:41:28;;;;;;;9.88;2.70;;;8.10;99.90;;;;;;5044951;28;20417;-73
2023/12/12 04:43:54;;;;;;;9.85;2.90;;;8.10;99.90;;;;;;5041813;28;20464;-73
2023/12/12 04:46:21;;;;;;;8.00;3.35;;;8.20;99.90;;;;;;5041801;28;20504;-73
2023/12/12 04:48:48;;;;;;;11.10;2.80;;;8.20;99.90;;;;;;5043545;28;20456;-73
2023/12/12 04:51:15;;;;;;;10.07;2.63;;;8.20;99.90;;;;;;5044252;28;20429;-73
2023/12/12 04:53:42;;;;;;;10.15;3.40;;;8.10;99.90;;;;;;5045642;28;20489;-75
2023/12/12 04:56:10;;;;;;;10.80;3.10;;;8.20;99.90;;;;;;5045135;28;20433;-74
2023/12/12 04:58:37;;;;;;;10.27;3.30;;;8.20;99.90;;;;;;5044667;28;20420;-75
2023/12/12 05:01:04;;;;;;;12.02;3.53;;;8.20;99.90;;;;;;5045281;28;20425;-75
2023/12/12 05:03:32;;;;;;;11.25;3.65;;;8.20;99.90;;;;;;5040782;28;20444;-72
2023/12/12 05:05:59;;;;;;;9.48;3.88;;;8.10;99.90;;;;;;5043410;28;20409;-73
2023/12/12 05:08:26;;;;;;;9.38;3.88;;;8.20;99.90;;;;;;5060308;28;20516;-73
2023/12/12 05:10:53;;;;;;;16.20;4.10;;;8.10;99.90;;;;;;5051448;28;20421;-74
2023/12/12 05:13:21;;;;;;;9.75;3.80;;;8.20;99.90;;;;;;5057117;28;20437;-73
2023/12/12 05:15:47;;;;;;;10.95;4.07;;;8.20;99.90;;;;;;5044963;28;20425;-73
2023/12/12 05:18:14;;;;;;;10.50;3.83;;;8.20;99.90;;;;;;5044657;28;20409;-74
2023/12/12 05:20:41;;;;;;;9.80;3.75;;;8.20;99.90;;;;;;5045523;28;20445;-74
2023/12/12 05:23:08;;;;;;;13.13;4.30;;;8.20;99.90;;;;;;5044610;28;20452;-73
2023/12/12 05:25:34;;;;;;;13.35;4.00;;;8.20;99.90;;;;;;5044560;28;20416;-73
2023/12/12 05:28:02;;;;;;;10.98;4.15;;;8.20;99.90;;;;;;5045283;28;20433;-74
2023/12/12 05:30:31;;;;;;;8.07;3.40;;;8.20;99.90;;;;;;5044927;28;20436;-74
2023/12/12 05:32:58;;;;;;;16.27;4.43;;;8.20;99.90;;;;;;5042533;28;20516;-74
2023/12/12 05:35:25;;;;;;;10.82;3.20;;;8.20;99.90;;;;;;5042193;28;20448;-74
2023/12/12 05:37:52;;;;;;;10.13;3.92;;;8.30;99.90;;;;;;5041330;28;20537;-72
2023/12/12 05:40:19;;;;;;;9.88;3.20;;;8.30;99.90;;;;;;5044194;28;20409;-74
2023/12/12 05:42:45;;;;;;;9.98;3.83;;;8.30;99.90;;;;;;5043320;28;20435;-74
2023/12/12 05:45:12;;;;;;;9.93;3.40;;;8.30;99.90;;;;;;5043374;28;20470;-73
2023/12/12 05:47:40;;;;;;;11.10;3.63;;;8.30;99.90;;;;;;5044813;28;20417;-73
2023/12/12 05:50:10;;;;;;;12.15;3.30;;;8.30;99.90;;;;;;5043413;28;20502;-74
2023/12/12 05:52:37;;;;;;;9.82;3.20;;;8.30;99.90;;;;;;5044392;28;20420;-75
2023/12/12 05:55:05;;;;;;;11.40;3.45;;;8.30;99.90;;;;;;5044659;28;20425;-75
2023/12/12 05:57:32;;;;;;;10.25;3.35;;;8.40;99.90;;;;;;5043950;28;20452;-75
2023/12/12 05:59:58;;;;;;;12.57;3.30;;;8.40;99.90;;;;;;5044906;28;20436;-75
2023/12/12 06:02:25;;;;;;;9.23;3.45;;;8.40;99.90;;;;;;5045427;28;20417;-71
2023/12/12 06:04:53;;;;;;;13.35;3.97;;;8.50;99.90;;;;;;5042828;28;20437;-72
2023/12/12 06:07:20;;;;;;;10.65;3.60;;;8.40;99.90;;;;;;5045440;28;20428;-71
2023/12/12 06:09:47;;;;;;;12.10;3.60;;;8.50;99.90;;;;;;5047758;28;20425;-71
2023/12/12 06:12:14;;;;;;;9.93;3.60;;;8.50;99.90;;;;;;5045882;28;20956;-73
2023/12/12 06:14:40;;;;;;;9.73;3.17;;;8.50;99.90;;;;;;5044839;28;20417;-72
2023/12/12 06:17:08;;;;;;;12.13;3.95;;;8.50;99.90;;;;;;5043707;28;20433;-76
2023/12/12 06:19:35;;;;;;;10.02;4.18;;;8.50;99.90;;;;;;5045248;28;20895;-68
2023/12/12 06:22:03;;;;;;;11.23;3.38;;;8.50;99.90;;;;;;5039812;28;20413;-62
2023/12/12 06:24:30;;;;;;;13.82;4.07;;;8.50;99.90;;;;;;5047224;28;20413;-63
2023/12/12 06:26:56;;;;;;;10.95;3.47;;;8.60;99.90;;;;;;5044668;28;20935;-63
2023/12/12 06:29:23;;;;;;;8.90;3.80;;;8.60;99.90;;;;;;5045347;28;20639;-64
2023/12/12 06:31:50;;;;;;;11.35;4.20;;;8.60;99.90;;;;;;5044246;28;20505;-68
2023/12/12 06:34:16;;;;;;;13.35;4.50;;;8.70;99.90;;;;;;5041517;28;20582;-70
2023/12/12 06:36:43;;;;;;;10.38;4.32;;;8.70;99.90;;;;;;5041697;28;20438;-72
2023/12/12 06:39:13;;;;;;;10.70;3.70;;;8.70;99.90;;;;;;5042697;28;20857;-69
2023/12/12 06:41:39;;;;;;;11.30;4.05;;;8.70;99.90;;;;;;5043180;28;20427;-70
2023/12/12 06:44:07;;;;;;;12.77;4.47;;;8.70;99.90;;;;;;5046427;28;20440;-70
2023/12/12 06:46:33;;;;;;;9.90;3.87;;;8.70;99.90;;;;;;5045653;28;20478;-71
2023/12/12 06:49:00;;;;;;;15.00;4.80;;;8.70;99.90;;;;;;5043469;28;20769;-71
2023/12/12 06:51:28;;;;;;;12.25;4.53;;;8.70;99.90;;;;;;5046611;28;20417;-71
2023/12/12 06:53:58;;;;;;;12.73;3.90;;;8.70;99.90;;;;;;5049834;28;20480;-69
2023/12/12 06:56:26;;;;;;;10.65;3.90;;;8.70;99.90;;;;;;5049594;28;20436;-69
2023/12/12 06:58:53;;;;;;;12.73;4.60;;;8.70;99.90;;;;;;5048122;28;20467;-70
2023/12/12 07:01:20;;;;;;;12.05;4.40;;;8.60;99.90;;;;;;5052589;28;20508;-69
2023/12/12 07:03:47;;;;;;;11.23;4.25;;;8.60;99.90;;;;;;5050402;28;20456;-68
2023/12/12 07:06:16;;;;;;;11.63;4.00;;;8.60;99.90;;;;;;5049262;28;20417;-69
2023/12/12 07:08:43;;;;;;;12.77;4.20;;;8.70;99.90;;;;;;5049781;28;20409;-69
2023/12/12 07:11:09;;;;;;;13.93;4.68;;;8.70;99.90;;;;;;5050074;28;20426;-69
2023/12/12 07:13:37;;;;;;;13.40;3.70;;;8.70;99.90;;;;;;5047441;28;21640;-69
2023/12/12 07:16:06;;;;;;;10.85;4.20;;;8.70;99.90;;;;;;5042626;28;20420;-69
2023/12/12 07:18:32;;;;;;;11.95;4.60;;;8.70;99.90;;;;;;5048734;28;20439;-69
2023/12/12 07:20:59;;;;;;;14.00;4.50;;;8.70;99.90;;;;;;5064142;28;20419;-69
2023/12/12 07:23:26;;;;;;;12.63;4.00;;;8.70;99.90;;;;;;5063920;28;20456;-68
2023/12/12 07:25:53;;;;;;;9.68;3.80;;;8.70;99.90;;;;;;5059012;28;20524;-69
2023/12/12 07:28:20;;;;;;;13.60;4.40;;;8.80;99.90;;;;;;5049491;28;20409;-69
2023/12/12 07:30:49;;;;;;;11.98;4.13;;;8.70;99.90;;;;;;5046821;28;20421;-69
2023/12/12 07:33:15;;;;;;;7.78;3.90;;;8.80;99.90;;;;;;5046530;28;20887;-69
2023/12/12 07:35:42;;;;;;;10.45;3.70;;;8.70;99.90;;;;;;5047763;28;20426;-69
2023/12/12 07:38:09;;;;;;;10.45;4.35;;;8.70;99.90;;;;;;5047032;28;20502;-69
2023/12/12 07:40:35;;;;;;;10.63;3.42;;;8.70;99.90;;;;;;5048340;28;20422;-69
2023/12/12 07:43:02;;;;;;;8.77;3.47;;;8.70;99.90;;;;;;5048775;28;20517;-69
2023/12/12 07:45:29;;;;;;;12.98;4.40;;;8.70;99.90;;;;;;5048514;28;20429;-69
2023/12/12 07:47:57;;;;;;;9.63;4.47;;;8.60;99.90;;;;;;5047786;28;20421;-69
2023/12/12 07:50:24;;;;;;;11.00;3.60;;;8.60;99.90;;;;;;5048821;28;20479;-68
2023/12/12 07:52:51;;;;;;;11.70;3.80;;;8.60;99.90;;;;;;5047531;28;20419;-69
2023/12/12 07:55:19;;;;;;;8.70;3.83;;;8.60;99.90;;;;;;5048602;28;20409;-69
2023/12/12 07:57:46;;;;;;;11.90;4.00;;;8.60;99.90;;;;;;5047570;28;20514;-69
2023/12/12 08:00:14;;;;;;;11.35;3.90;;;8.50;99.90;;;;;;5040773;28;20518;-69
2023/12/12 08:02:41;;;;;;;13.35;3.60;;;8.50;99.90;;;;;;5045456;28;20437;-69
2023/12/12 08:05:09;;;;;;;11.02;4.03;;;8.50;99.90;;;;;;5045725;28;20498;-68
2023/12/12 08:07:36;;;;;;;10.68;3.67;;;8.50;99.90;;;;;;5047321;28;20417;-68
2023/12/12 08:10:03;;;;;;;9.80;3.70;;;8.50;99.90;;;;;;5046786;28;20432;-68
2023/12/12 08:12:29;;;;;;;9.38;3.20;;;8.40;99.90;;;;;;5044479;28;20425;-68
2023/12/12 08:14:56;;;;;;;11.65;4.03;;;8.40;99.90;;;;;;5043728;28;20433;-68
2023/12/12 08:17:23;;;;;;;8.70;3.72;;;8.40;99.90;;;;;;5042693;28;20453;-68
2023/12/12 08:19:50;;;;;;;9.25;3.10;;;8.50;99.90;;;;;;5045056;28;20436;-68
2023/12/12 08:22:18;;;;;;;8.20;3.10;;;8.50;99.90;;;;;;5047259;28;20421;-68
2023/12/12 08:24:45;;;;;;;12.20;3.50;;;8.50;99.90;;;;;;5047396;28;20417;-68
2023/12/12 08:27:13;;;;;;;9.27;3.40;;;8.60;99.90;;;;;;5046849;28;20580;-68
2023/12/12 08:29:40;;;;;;;9.87;4.00;;;8.60;99.90;;;;;;5046133;28;20428;-68
2023/12/12 08:32:07;;;;;;;8.88;3.92;;;8.60;99.90;;;;;;5046956;28;20406;-68
2023/12/12 08:34:34;;;;;;;9.45;3.90;;;8.70;99.90;;;;;;5044834;28;20448;-68
2023/12/12 08:37:01;;;;;;;14.15;3.80;;;8.70;99.90;;;;;;5045814;28;20916;-68
2023/12/12 08:39:30;;;;;;;10.70;3.85;;;8.80;99.90;;;;;;5042863;28;20432;-68
2023/12/12 08:41:57;;;;;;;8.00;3.70;;;8.80;99.90;;;;;;5044620;28;20413;-68
2023/12/12 08:44:24;;;;;;;8.70;3.40;;;8.80;99.90;;;;;;5046864;28;20881;-68
2023/12/12 08:46:50;;;;;;;10.90;3.97;;;8.90;99.90;;;;;;5044141;28;20603;-68
2023/12/12 08:49:18;;;;;;;9.75;3.50;;;8.90;99.90;;;;;;5045441;28;20433;-68
2023/12/12 08:51:45;;;;;;;11.10;3.70;;;8.90;99.90;;;;;;5046106;28;20881;-68
2023/12/12 08:54:12;;;;;;;12.97;4.40;;;8.80;99.90;;;;;;5045632;28;20478;-68
2023/12/12 08:56:41;;;;;;;11.35;4.10;;;8.70;99.90;;;;;;5044903;28;20464;-68
2023/12/12 08:59:08;;;;;;;12.45;3.72;;;8.60;99.90;;;;;;5045502;28;20417;-68
2023/12/12 09:01:34;;;;;;;12.68;4.10;;;8.60;99.90;;;;;;5045212;28;20836;-68
2023/12/12 09:04:02;;;;;;;10.55;3.90;;;8.60;99.90;;;;;;5042736;28;20436;-68
2023/12/12 09:06:29;;;;;;;13.05;4.95;;;8.60;99.90;;;;;;5041829;28;20974;-68
2023/12/12 09:08:55;;;;;;;10.00;3.90;;;8.60;99.90;;;;;;5048714;28;20515;-68
2023/12/12 09:11:22;;;;;;;11.00;3.97;;;8.60;99.90;;;;;;5050093;28;20433;-68
2023/12/12 09:13:50;;;;;;;13.20;4.87;;;8.60;99.90;;;;;;5046071;28;20405;-68
2023/12/12 09:16:17;;;;;;;10.20;3.63;;;8.60;99.90;;;;;;5045021;28;20955;-68
2023/12/12 09:18:43;;;;;;;13.75;3.75;;;8.60;99.90;;;;;;5045382;28;20456;-68
2023/12/12 09:21:11;;;;;;;11.68;4.53;;;8.60;99.90;;;;;;5043228;28;20469;-68
2023/12/12 09:23:40;;;;;;;12.48;3.80;;;8.60;99.90;;;;;;5041808;28;20600;-68
2023/12/12 09:26:12;;;;;;;8.88;3.53;;;8.60;99.90;;;;;;5043412;28;20505;-68
2023/12/12 09:28:40;;;;;;;10.48;3.78;;;8.70;99.90;;;;;;5044475;28;20416;-68
2023/12/12 09:31:08;;;;;;;9.10;4.30;;;8.60;99.90;;;;;;5045171;28;20417;-68
2023/12/12 09:33:37;;;;;;;10.18;3.90;;;8.60;99.90;;;;;;5048526;28;20455;-68
2023/12/12 09:36:06;;;;;;;13.15;4.82;;;8.60;99.90;;;;;;5055471;28;20456;-68
2023/12/12 09:38:32;;;;;;;9.40;3.83;;;8.70;99.90;;;;;;5053445;28;20484;-68
2023/12/12 09:41:01;;;;;;;9.15;3.60;;;8.80;99.90;;;;;;5052129;28;20439;-68
2023/12/12 09:43:30;;;;;;;8.40;3.40;;;8.90;99.90;;;;;;5043841;28;20520;-68
2023/12/12 09:45:58;;;;;;;9.38;3.80;;;9.00;99.90;;;;;;5033173;28;20437;-70
2023/12/12 09:48:26;;;;;;;8.73;4.00;;;9.00;99.90;;;;;;5042906;28;20425;-67
2023/12/12 09:50:56;;;;;;;9.23;3.97;;;9.00;99.90;;;;;;5036680;28;20508;-68
2023/12/12 09:53:25;;;;;;;7.50;3.67;;;9.10;99.90;;;;;;5042217;28;20444;-68
2023/12/12 09:55:53;;;;;;;9.57;4.50;;;9.20;99.90;;;;;;5042391;28;20441;-70
2023/12/12 09:58:19;;;;;;;7.68;3.60;;;9.20;99.90;;;;;;5043957;28;20456;-70
2023/12/12 10:00:46;;;;;;;8.23;4.60;;;9.20;99.90;;;;;;5043708;28;20872;-68
2023/12/12 10:03:15;;;;;;;9.02;3.90;;;9.20;99.90;;;;;;5042414;28;21403;-69
2023/12/12 10:05:51;;;;;;;8.73;3.47;;;9.20;99.90;;;;;;5045716;28;20997;-67
2023/12/12 10:08:18;;;;;;;10.00;3.60;;;9.20;99.90;;;;;;5044540;28;20417;-68
2023/12/12 10:10:45;;;;;;;8.23;4.00;;;9.20;99.90;;;;;;5042838;28;20417;-69
2023/12/12 10:13:11;;;;;;;8.55;3.70;;;9.20;99.90;;;;;;5042052;28;20447;-70
2023/12/12 10:15:38;;;;;;;7.97;3.80;;;9.20;99.90;;;;;;5043760;28;20420;-69
2023/12/12 10:18:05;;;;;;;10.93;3.50;;;9.20;99.90;;;;;;5036394;28;20888;-70
2023/12/12 10:20:35;;;;;;;10.88;3.90;;;9.20;99.90;;;;;;5042409;28;20436;-69
2023/12/12 10:23:04;;;;;;;9.57;3.78;;;9.20;99.90;;;;;;5041931;28;20874;-72
2023/12/12 10:25:32;;;;;;;9.87;3.70;;;9.30;99.90;;;;;;5046621;28;20526;-67
2023/12/12 10:28:00;;;;;;;8.32;3.90;;;9.30;99.90;;;;;;5042686;28;20424;-67
2023/12/12 10:30:27;;;;;;;10.60;4.03;;;9.30;99.90;;;;;;5042957;28;20428;-69
2023/12/12 10:32:55;;;;;;;9.13;3.80;;;9.30;99.90;;;;;;5042862;28;20413;-69
2023/12/12 10:35:23;;;;;;;9.10;3.35;;;9.30;99.90;;;;;;5043411;28;20425;-69
2023/12/12 10:37:50;;;;;;;8.60;3.83;;;9.40;99.90;;;;;;5044038;28;20437;-69
2023/12/12 10:40:21;;;;;;;9.63;3.83;;;9.30;99.90;;;;;;5045110;28;20757;-67
2023/12/12 10:42:48;;;;;;;10.00;4.00;;;9.30;99.90;;;;;;5044348;28;20420;-68
2023/12/12 10:45:16;;;;;;;8.68;4.10;;;9.30;99.90;;;;;;5044299;28;20415;-68
2023/12/12 10:47:46;;;;;;;12.60;4.53;;;9.30;99.90;;;;;;5041582;28;20425;-68
2023/12/12 10:50:14;;;;;;;9.57;4.07;;;9.40;99.90;;;;;;5043127;28;20500;-68
2023/12/12 10:52:43;;;;;;;9.55;3.90;;;9.40;99.90;;;;;;5044842;28;20417;-67
2023/12/12 10:55:11;;;;;;;10.60;4.87;;;9.50;99.90;;;;;;5044277;28;20436;-67
2023/12/12 10:57:42;;;;;;;10.93;6.43;;;9.40;99.90;;;;;;5043814;28;20856;-67
2023/12/12 11:00:14;;;;;;;10.73;4.78;;;9.40;99.90;;;;;;5042493;28;20868;-67
2023/12/12 11:02:41;;;;;;;11.80;4.50;;;9.40;99.90;;;;;;5041235;28;20445;-68
2023/12/12 11:05:11;;;;;;;10.35;3.90;;;9.50;99.90;;;;;;5043766;28;20524;-67
2023/12/12 11:07:39;;;;;;;8.60;4.40;;;9.50;99.90;;;;;;5044242;28;20939;-67
2023/12/12 11:10:10;;;;;;;7.63;3.23;;;9.50;99.90;;;;;;5044228;28;20590;-67
2023/12/12 11:12:43;;;;;;;8.82;3.55;;;9.50;99.90;;;;;;5043969;28;20425;-67
2023/12/12 11:15:12;;;;;;;8.35;3.90;;;9.40;99.90;;;;;;5041859;28;20453;-67
2023/12/12 11:17:40;;;;;;;9.55;3.70;;;9.40;99.90;;;;;;5043129;28;20918;-67
2023/12/12 11:20:14;;;;;;;6.10;3.08;;;9.40;99.90;;;;;;5042855;28;20421;-68
2023/12/12 11:22:42;;;;;;;8.90;4.13;;;9.30;99.90;;;;;;5042977;28;20524;-67
2023/12/12 11:25:15;;;;;;;7.77;3.87;;;9.30;99.90;;;;;;5042590;28;20562;-67
2023/12/12 11:27:46;;;;;;;11.63;4.10;;;9.30;99.90;;;;;;5043602;28;20425;-67
2023/12/12 11:30:12;;;;;;;8.23;4.40;;;9.40;99.90;;;;;;5042017;28;20520;-67
2023/12/12 11:32:41;;;;;;;10.73;4.30;;;9.30;99.90;;;;;;5042645;28;20417;-67
2023/12/12 11:35:25;;;;;;;11.30;4.68;;;9.20;99.90;;;;;;5043287;28;20805;-67
2023/12/12 11:37:54;;;;;;;9.93;4.68;;;9.10;99.90;;;;;;5046334;28;20425;-69
2023/12/12 11:40:22;;;;;;;12.50;4.60;;;9.10;99.90;;;;;;5047451;28;20495;-69
2023/12/12 11:42:52;;;;;;;10.70;4.47;;;9.00;99.90;;;;;;5046300;28;20567;-67
2023/12/12 11:45:30;;;;;;;12.05;5.25;;;9.00;99.90;;;;;;5051643;28;20429;-67
2023/12/12 11:48:00;;;;;;;10.27;5.32;;;9.00;99.90;;;;;;5063567;28;20386;-67
2023/12/12 11:50:34;;;;;;;12.25;5.40;;;9.00;99.90;;;;;;5074000;28;20413;-68
2023/12/12 11:53:03;;;;;;;9.55;5.88;;;9.00;99.90;;;;;;5052793;28;20479;-68
2023/12/12 11:55:32;;;;;;;9.60;5.07;;;9.00;99.90;;;;;;5060132;28;20526;-68
2023/12/12 11:58:05;;;;;;;10.60;5.37;;;9.10;99.90;;;;;;5054810;28;20433;-68
2023/12/12 12:00:34;;;;;;;12.18;5.35;;;9.10;99.90;;;;;;5040643;28;20466;-69
2023/12/12 12:03:02;;;;;;;12.27;4.70;;;9.10;99.90;;;;;;5039796;28;20523;-68
2023/12/12 12:05:29;;;;;;;10.48;5.15;;;9.10;99.90;;;;;;5045716;28;20413;-69
2023/12/12 12:07:56;;;;;;;11.48;5.28;;;9.20;99.90;;;;;;5045051;28;20444;-68
2023/12/12 12:10:23;;;;;;;10.10;5.53;;;9.20;99.90;;;;;;5046712;28;20413;-68
2023/12/12 12:12:58;;;;;;;11.85;5.85;;;9.20;99.90;;;;;;5047957;28;20530;-67
2023/12/12 12:15:27;;;;;;;15.02;6.25;;;9.20;99.90;;;;;;5045959;28;20436;-67
2023/12/12 12:17:54;;;;;;;14.30;6.35;;;9.20;99.90;;;;;;5051171;28;20465;-68
2023/12/12 12:20:21;;;;;;;13.82;6.20;;;9.20;99.90;;;;;;5054453;28;20413;-67
2023/12/12 12:22:47;;;;;;;12.80;6.30;;;9.20;99.90;;;;;;5049114;28;20413;-68
2023/12/12 12:25:21;;;;;;;14.77;6.28;;;9.20;99.90;;;;;;5050856;28;20463;-67
2023/12/12 12:27:50;;;;;;;10.13;4.82;;;9.30;99.90;;;;;;5050887;28;20425;-68
2023/12/12 12:30:18;;;;;;;12.60;5.82;;;9.30;99.90;;;;;;5048882;28;20455;-67
2023/12/12 12:33:03;;;;;;;14.93;5.93;;;9.30;99.90;;;;;;5048234;28;20440;-71
2023/12/12 12:35:30;;;;;;;12.77;6.55;;;9.30;99.90;;;;;;5045521;28;20497;-67
2023/12/12 12:37:57;;;;;;;13.57;6.07;;;9.30;99.90;;;;;;5047297;28;20511;-67
2023/12/12 12:40:35;;;;;;;13.57;6.50;;;9.30;99.90;;;;;;5046752;28;20463;-67
2023/12/12 12:43:04;;;;;;;12.77;5.82;;;9.30;99.90;;;;;;5038787;28;20429;-66
2023/12/12 12:45:33;;;;;;;18.37;7.40;;;9.20;99.90;;;;;;5045655;28;20448;-68
2023/12/12 12:48:02;;;;;;;10.68;5.60;;;9.20;99.90;;;;;;5046771;28;20491;-67
2023/12/12 12:50:29;;;;;;;11.52;5.82;;;9.10;99.90;;;;;;5047530;28;20417;-67
2023/12/12 12:52:58;;;;;;;14.20;5.93;;;9.20;99.90;;;;;;5046270;28;20436;-67